»·PEaware :: N2442P KMHV-KSBD

N2442P :: KMHV-KSBD

FLIGHT INFORMATION

Flight Status: Arrived
Operator: Privately registered:
United States
More flights under this callsign
Pilot: Ken Q. (14290)
Aircraft: MOONEY M-20K/M ENCORE BRAVO
(M20T)
More flights by this aircraft type
Origin: KMHV Mojave
United States
Destination: KSBD San Bernardino Intl
United States
More flights between these airports :: More routes between these airports
Route: KMHY VCV KSBD
File this flight plan on PilotEdge
Remarks:
Altitude:
(Current/Filed)
11,500ft
Speed:
(Current/Filed)
175kts
Departed: 04-Dec-18 01:52 PM
Arrived: 04-Dec-18 02:33 PM
Distance/Time
Traveled:
73nm/0:40
Distance/Time
To Go:
Arrived

Flight Plot

Page will automatically refresh every two minutes.

Flight plan parsing failed; only flown route is shown


Map Options




Map Legend


Flown Route
Filed Route
Departure Airport
Arrival Airport
Navaid (VOR, NDB)
Fix

Horizontal Profiles

Position Reports

Time Latitude Longitude Heading Altitude Ground
Speed
04-Dec-18 13:25 35.057000 -118.156106 11 2794ft 0kts
04-Dec-18 13:26 35.057000 -118.156106 11 2794ft 0kts
04-Dec-18 13:27 35.057000 -118.156106 11 2794ft 0kts
04-Dec-18 13:28 35.057000 -118.156106 11 2794ft 0kts
04-Dec-18 13:29 35.057000 -118.156106 11 2794ft 0kts
04-Dec-18 13:30 35.057000 -118.156106 11 2794ft 0kts
04-Dec-18 13:31 35.057000 -118.156106 11 2794ft 0kts
04-Dec-18 13:32 35.057000 -118.156106 11 2794ft 0kts
04-Dec-18 13:33 35.057000 -118.156106 11 2794ft 0kts
04-Dec-18 13:34 35.057000 -118.156106 11 2794ft 0kts
04-Dec-18 13:35 35.057000 -118.156106 11 2794ft 0kts
04-Dec-18 13:36 35.057001 -118.156105 11 2794ft 0kts
04-Dec-18 13:37 35.057001 -118.156105 11 2794ft 0kts
04-Dec-18 13:38 35.057002 -118.156105 11 2794ft 0kts
04-Dec-18 13:39 35.057002 -118.156105 11 2794ft 0kts
04-Dec-18 13:40 35.057003 -118.156105 11 2794ft 0kts
04-Dec-18 13:41 35.057003 -118.156105 11 2794ft 0kts
04-Dec-18 13:41 35.057004 -118.156105 11 2794ft 0kts
04-Dec-18 13:43 35.057004 -118.156105 11 2794ft 0kts
04-Dec-18 13:43 35.057004 -118.156105 11 2794ft 0kts
04-Dec-18 13:44 35.057005 -118.156104 11 2794ft 0kts
04-Dec-18 13:46 35.057534 -118.157122 272 2794ft 7kts
04-Dec-18 13:46 35.057565 -118.159660 271 2794ft 9kts
04-Dec-18 13:48 35.057593 -118.163812 269 2794ft 10kts
04-Dec-18 13:48 35.058368 -118.165039 321 2794ft 0kts
04-Dec-18 13:49 35.058372 -118.165043 321 2794ft 0kts
04-Dec-18 13:50 35.058512 -118.165180 320 2794ft 11kts
04-Dec-18 13:51 35.059326 -118.148271 85 2949ft 99kts
04-Dec-18 13:52 35.049635 -118.112018 123 3551ft 126kts
04-Dec-18 13:53 35.027454 -118.078045 122 4159ft 129kts
04-Dec-18 13:54 35.005021 -118.043537 122 4764ft 130kts
04-Dec-18 13:55 34.982784 -118.007824 123 5381ft 135kts
04-Dec-18 13:56 34.963165 -117.972371 123 5935ft 139kts
04-Dec-18 13:57 34.940722 -117.933431 125 6539ft 141kts
04-Dec-18 13:58 34.917968 -117.893976 125 7140ft 142kts
04-Dec-18 13:59 34.895296 -117.854150 125 7754ft 144kts
04-Dec-18 14:00 34.872444 -117.813487 125 8350ft 145kts
04-Dec-18 14:01 34.849654 -117.772326 125 8851ft 148kts
04-Dec-18 14:02 34.824782 -117.731806 129 9353ft 150kts
04-Dec-18 14:03 34.798265 -117.688791 129 9497ft 169kts
04-Dec-18 14:04 34.769303 -117.641690 129 9496ft 177kts
04-Dec-18 14:05 34.739716 -117.593531 128 9485ft 178kts
04-Dec-18 14:06 34.709794 -117.545507 135 9478ft 178kts
04-Dec-18 14:07 34.667505 -117.515111 154 9477ft 178kts
04-Dec-18 14:08 34.620904 -117.495545 164 9468ft 176kts
04-Dec-18 14:09 34.573607 -117.479702 165 9467ft 178kts
04-Dec-18 14:10 34.527009 -117.460987 158 9464ft 175kts
04-Dec-18 14:11 34.481265 -117.440615 164 9462ft 174kts
04-Dec-18 14:12 34.437240 -117.425989 167 9253ft 156kts
04-Dec-18 14:13 34.396851 -117.431925 194 8764ft 136kts
04-Dec-18 14:14 34.364652 -117.445213 194 8177ft 114kts
04-Dec-18 14:15 34.333040 -117.455721 188 7600ft 127kts
04-Dec-18 14:16 34.299087 -117.459197 176 7001ft 118kts
04-Dec-18 14:17 34.268821 -117.451431 157 6395ft 107kts
04-Dec-18 14:18 34.241283 -117.438946 156 5791ft 103kts
04-Dec-18 14:19 34.216075 -117.422707 150 5168ft 105kts
04-Dec-18 14:20 34.188191 -117.410933 152 4483ft 105kts
04-Dec-18 14:21 34.161647 -117.395473 151 3785ft 106kts
04-Dec-18 14:22 34.134603 -117.380057 154 3121ft 110kts
04-Dec-18 14:23 34.110662 -117.364548 120 2796ft 85kts
04-Dec-18 14:24 34.097824 -117.345059 130 2468ft 72kts
04-Dec-18 14:25 34.090436 -117.323117 98 2102ft 75kts
04-Dec-18 14:26 34.094481 -117.293923 67 2406ft 120kts
04-Dec-18 14:27 34.110257 -117.257606 62 2275ft 103kts
04-Dec-18 14:28 34.121350 -117.228211 69 2309ft 98kts
04-Dec-18 14:29 34.129736 -117.196223 74 2274ft 99kts
04-Dec-18 14:30 34.110103 -117.186873 241 1867ft 85kts
04-Dec-18 14:31 34.102045 -117.212179 247 1310ft 76kts
04-Dec-18 14:32 34.096856 -117.230057 249 1122ft 21kts
04-Dec-18 14:33 34.096039 -117.236188 329 1122ft 0kts
04-Dec-18 14:34 34.096039 -117.236188 329 1122ft 0kts
04-Dec-18 14:35 34.096492 -117.236516 323 1122ft 9kts
04-Dec-18 14:36 34.095881 -117.239548 250 1122ft 10kts
04-Dec-18 14:37 34.095980 -117.242091 9 1122ft 5kts
04-Dec-18 14:38 34.098608 -117.242170 356 1122ft 15kts
04-Dec-18 14:39 34.100582 -117.242136 359 1122ft 4kts
04-Dec-18 14:40 34.102131 -117.243635 272 1122ft 10kts
04-Dec-18 14:41 34.103868 -117.245799 60 1122ft 3kts
04-Dec-18 14:42 34.103870 -117.245785 88 1122ft 0kts
04-Dec-18 14:43 34.103870 -117.245785 88 1122ft 0kts

Navigation Log

Ident Type
Flight plan parsing failed, navigation log unavailable